createdAt,value
2023-03-03T00:00:21.671Z,19.13
2023-03-03T00:02:49.570Z,18.83
2023-03-03T00:05:18.530Z,19.45
2023-03-03T00:07:46.634Z,18.67
2023-03-03T00:10:15.981Z,19.20
2023-03-03T00:12:48.730Z,20.85
2023-03-03T00:15:17.723Z,21.42
2023-03-03T00:17:45.939Z,22.40
2023-03-03T00:20:36.601Z,23.30
2023-03-03T00:23:21.498Z,20.25
2023-03-03T00:25:52.713Z,19.48
2023-03-03T00:28:25.542Z,19.60
2023-03-03T00:30:54.262Z,21.08
2023-03-03T00:33:32.869Z,21.08
2023-03-03T00:36:28.566Z,20.38
2023-03-03T00:38:59.025Z,24.63
2023-03-03T00:41:29.281Z,19.30
2023-03-03T00:43:57.118Z,22.40
2023-03-03T00:46:25.210Z,23.17
2023-03-03T00:48:53.435Z,19.92
2023-03-03T00:51:31.115Z,22.17
2023-03-03T00:53:59.799Z,19.20
2023-03-03T00:56:29.054Z,19.70
2023-03-03T00:58:56.920Z,21.40
2023-03-03T01:01:25.560Z,20.85
2023-03-03T01:03:53.743Z,21.23
2023-03-03T01:06:22.000Z,18.67
2023-03-03T01:08:50.324Z,20.63
2023-03-03T01:11:22.612Z,19.85
2023-03-03T01:13:53.603Z,19.80
2023-03-03T01:16:21.973Z,20.08
2023-03-03T01:18:50.119Z,18.10
2023-03-03T01:21:18.068Z,18.90
2023-03-03T01:23:46.220Z,19.20
2023-03-03T01:26:14.214Z,18.48
2023-03-03T01:28:42.041Z,18.65
2023-03-03T01:31:11.856Z,19.65
2023-03-03T01:33:40.129Z,16.08
2023-03-03T01:36:09.256Z,15.52
2023-03-03T01:38:37.897Z,17.05
2023-03-03T01:41:06.766Z,18.67
2023-03-03T01:43:35.066Z,16.48
2023-03-03T01:46:39.546Z,16.48
2023-03-03T01:49:12.315Z,15.88
2023-03-03T01:51:46.617Z,14.02
2023-03-03T01:54:19.475Z,16.73
2023-03-03T01:56:47.916Z,13.70
2023-03-03T01:59:19.344Z,15.88
2023-03-03T02:01:50.255Z,16.25
2023-03-03T02:04:19.571Z,15.38
2023-03-03T02:06:53.814Z,14.95
2023-03-03T02:09:28.436Z,14.77
2023-03-03T02:12:00.476Z,16.95
2023-03-03T02:14:29.601Z,16.42
2023-03-03T02:16:59.212Z,15.35
2023-03-03T02:19:37.040Z,14.95
2023-03-03T02:22:05.292Z,14.15
2023-03-03T02:24:39.790Z,14.73
2023-03-03T02:27:09.203Z,16.27
2023-03-03T02:29:37.447Z,14.50
2023-03-03T02:32:06.833Z,15.60
2023-03-03T02:34:46.503Z,15.38
2023-03-03T02:37:14.804Z,13.25
2023-03-03T02:39:42.957Z,16.17
2023-03-03T02:42:17.964Z,14.93
2023-03-03T02:44:46.818Z,13.52
2023-03-03T02:47:14.850Z,15.00
2023-03-03T02:49:43.244Z,14.65
2023-03-03T02:52:12.561Z,13.68
2023-03-03T02:54:40.708Z,13.48
2023-03-03T02:57:09.021Z,14.00
2023-03-03T02:59:38.238Z,13.45
2023-03-03T03:02:07.509Z,15.35
2023-03-03T03:04:35.623Z,16.23
2023-03-03T03:07:03.830Z,14.52
2023-03-03T03:09:31.968Z,16.33
2023-03-03T03:12:02.447Z,15.52
2023-03-03T03:14:30.630Z,15.52
2023-03-03T03:17:00.168Z,18.30
2023-03-03T03:19:28.439Z,14.85
2023-03-03T03:21:56.364Z,12.75
2023-03-03T03:24:24.310Z,13.93
2023-03-03T03:26:52.229Z,13.13
2023-03-03T03:29:20.049Z,13.95
2023-03-03T03:31:48.137Z,14.13
2023-03-03T03:34:17.438Z,15.15
2023-03-03T03:36:46.800Z,16.85
2023-03-03T03:39:14.815Z,15.70
2023-03-03T03:41:42.913Z,15.60
2023-03-03T03:44:11.027Z,19.77
2023-03-03T03:46:38.981Z,18.23
2023-03-03T03:49:06.872Z,16.50
2023-03-03T03:51:41.455Z,16.42
2023-03-03T03:54:09.473Z,15.52
2023-03-03T03:56:37.312Z,14.60
2023-03-03T03:59:06.940Z,15.38
2023-03-03T04:01:35.529Z,14.07
2023-03-03T04:04:04.013Z,16.88
2023-03-03T04:06:31.963Z,17.13
2023-03-03T04:09:01.558Z,13.93
2023-03-03T04:11:29.629Z,14.43
2023-03-03T04:13:57.454Z,14.02
2023-03-03T04:16:25.385Z,16.02
2023-03-03T04:18:53.296Z,13.85
2023-03-03T04:21:21.669Z,14.27
2023-03-03T04:23:49.652Z,14.93
2023-03-03T04:26:19.029Z,14.95
2023-03-03T04:28:46.926Z,15.27
2023-03-03T04:31:15.225Z,15.35
2023-03-03T04:33:43.187Z,14.88
2023-03-03T04:36:11.164Z,14.63
2023-03-03T04:38:39.327Z,15.82
2023-03-03T04:41:07.224Z,13.82
2023-03-03T04:43:36.634Z,14.88
2023-03-03T04:46:04.716Z,14.07
2023-03-03T04:48:32.738Z,13.80
2023-03-03T04:51:00.847Z,14.30
2023-03-03T04:53:28.880Z,14.05
2023-03-03T04:55:57.219Z,13.55
2023-03-03T04:58:25.388Z,13.07
2023-03-03T05:00:57.968Z,15.05
2023-03-03T05:03:26.863Z,14.38
2023-03-03T05:05:54.942Z,13.70
2023-03-03T05:08:23.132Z,16.80
2023-03-03T05:10:53.127Z,15.85
2023-03-03T05:13:21.560Z,17.08
2023-03-03T05:15:52.681Z,13.40
2023-03-03T05:18:22.867Z,16.45
2023-03-03T05:20:51.500Z,14.88
2023-03-03T05:23:19.714Z,16.02
2023-03-03T05:25:49.223Z,17.90
2023-03-03T05:28:17.772Z,12.70
2023-03-03T05:30:46.258Z,18.25
2023-03-03T05:33:15.565Z,15.50
2023-03-03T05:35:45.570Z,15.77
2023-03-03T05:38:13.569Z,15.85
2023-03-03T05:40:41.521Z,16.25
2023-03-03T05:43:09.779Z,17.40
2023-03-03T05:45:37.785Z,17.75
2023-03-03T05:48:06.103Z,19.45
2023-03-03T05:50:34.384Z,16.13
2023-03-03T05:53:05.935Z,24.75
2023-03-03T05:55:41.386Z,16.85
2023-03-03T05:58:09.416Z,16.67
2023-03-03T06:00:41.949Z,24.38
2023-03-03T06:03:10.189Z,15.55
2023-03-03T06:06:46.937Z,15.50
2023-03-03T06:09:19.015Z,22.30
2023-03-03T06:11:48.807Z,15.13
2023-03-03T06:14:17.309Z,14.80
2023-03-03T06:16:45.423Z,15.00
2023-03-03T06:22:48.911Z,16.02
2023-03-03T06:25:18.723Z,15.27
2023-03-03T06:27:51.509Z,16.85
2023-03-03T06:30:20.324Z,15.38
2023-03-03T06:32:48.480Z,18.10
2023-03-03T06:35:18.560Z,15.18
2023-03-03T06:37:46.519Z,16.50
2023-03-03T06:40:15.540Z,18.85
2023-03-03T06:42:45.436Z,17.95
2023-03-03T06:45:14.052Z,15.02
2023-03-03T06:47:42.456Z,14.13
2023-03-03T06:50:13.050Z,16.10
2023-03-03T06:52:40.970Z,17.02
2023-03-03T06:55:14.980Z,18.65
2023-03-03T06:57:44.349Z,16.25
2023-03-03T07:00:17.887Z,16.95
2023-03-03T07:02:45.976Z,18.20
2023-03-03T07:05:16.771Z,17.17
2023-03-03T07:07:45.405Z,15.85
2023-03-03T07:10:25.377Z,17.10
2023-03-03T07:12:55.406Z,15.30
2023-03-03T07:15:26.024Z,19.17
2023-03-03T07:17:59.626Z,16.20
2023-03-03T07:20:35.095Z,15.30
2023-03-03T07:23:10.925Z,16.95
2023-03-03T07:25:39.263Z,14.98
2023-03-03T07:28:20.877Z,13.10
2023-03-03T07:30:49.064Z,22.58
2023-03-03T07:33:26.434Z,16.08
2023-03-03T07:35:56.358Z,15.18
2023-03-03T07:38:35.509Z,17.98
2023-03-03T07:41:06.571Z,17.75
2023-03-03T07:43:54.934Z,16.67
2023-03-03T07:46:35.899Z,14.75
2023-03-03T07:49:17.502Z,21.58
2023-03-03T07:51:45.523Z,15.77
2023-03-03T07:54:25.905Z,18.35
2023-03-03T07:56:53.911Z,16.77
2023-03-03T07:59:25.620Z,16.95
2023-03-03T08:01:55.390Z,16.15
2023-03-03T08:04:26.606Z,15.10
2023-03-03T08:06:56.815Z,15.00
2023-03-03T08:09:44.927Z,20.75
2023-03-03T08:12:36.400Z,19.05
2023-03-03T08:15:21.423Z,22.85
2023-03-03T08:17:53.593Z,18.83
2023-03-03T08:20:43.116Z,20.02
2023-03-03T08:23:11.490Z,24.65
2023-03-03T08:25:39.680Z,16.95
2023-03-03T08:28:08.048Z,18.52
2023-03-03T08:30:37.689Z,21.05
2023-03-03T08:33:05.964Z,20.08
2023-03-03T08:35:34.180Z,21.75
2023-03-03T08:38:02.500Z,21.08
2023-03-03T08:40:31.092Z,25.98
2023-03-03T08:42:59.439Z,23.45
2023-03-03T08:45:28.472Z,22.10
2023-03-03T08:47:59.889Z,29.13
2023-03-03T08:50:28.775Z,27.48
2023-03-03T08:52:57.165Z,22.17
2023-03-03T08:55:26.508Z,16.35
2023-03-03T08:57:54.663Z,18.83
2023-03-03T09:00:22.937Z,16.88
2023-03-03T09:02:53.928Z,20.10
2023-03-03T09:05:25.552Z,21.92
2023-03-03T09:07:56.160Z,25.77
2023-03-03T09:10:27.539Z,21.45
2023-03-03T09:12:58.253Z,21.88
2023-03-03T09:15:28.590Z,23.98
2023-03-03T09:18:00.602Z,24.38
2023-03-03T09:20:39.279Z,24.40
2023-03-03T09:23:31.084Z,26.58
2023-03-03T09:26:00.219Z,26.67
2023-03-03T09:28:30.623Z,31.35
2023-03-03T09:31:01.230Z,27.92
2023-03-03T09:33:33.684Z,26.77
2023-03-03T09:36:23.037Z,31.58
2023-03-03T09:38:51.732Z,27.27
2023-03-03T09:42:01.358Z,27.45
2023-03-03T09:44:53.268Z,34.17
2023-03-03T09:47:37.526Z,26.95
2023-03-03T09:50:15.553Z,26.33
2023-03-03T09:52:53.750Z,25.67
2023-03-03T09:55:40.127Z,25.35
2023-03-03T09:58:25.890Z,26.85
2023-03-03T10:01:07.405Z,28.33
2023-03-03T10:04:02.593Z,27.92
2023-03-03T10:06:35.365Z,24.30
2023-03-03T10:09:32.444Z,24.02
2023-03-03T10:12:11.604Z,25.02
2023-03-03T10:14:57.102Z,23.83
2023-03-03T10:17:38.929Z,24.65
2023-03-03T10:20:40.557Z,25.20
2023-03-03T10:23:23.421Z,19.98
2023-03-03T10:26:02.061Z,27.67
2023-03-03T10:29:05.495Z,26.67
2023-03-03T10:31:48.716Z,20.45
2023-03-03T10:34:45.380Z,22.27
2023-03-03T10:37:22.538Z,22.67
2023-03-03T10:40:07.153Z,29.10
2023-03-03T10:43:02.128Z,27.42
2023-03-03T10:45:57.913Z,23.77
2023-03-03T10:49:03.918Z,28.20
2023-03-03T10:51:38.037Z,28.23
2023-03-03T10:54:23.149Z,23.33
2023-03-03T10:57:01.912Z,21.95
2023-03-03T10:59:51.300Z,22.35
2023-03-03T11:02:24.994Z,28.27
2023-03-03T11:05:18.234Z,25.33
2023-03-03T11:07:50.162Z,28.27
2023-03-03T11:10:44.641Z,23.58
2023-03-03T11:13:21.859Z,25.15
2023-03-03T11:16:21.065Z,25.48
2023-03-03T11:19:08.884Z,23.05
2023-03-03T11:21:47.744Z,24.88
2023-03-03T11:24:35.639Z,23.33
2023-03-03T11:27:17.477Z,24.63
2023-03-03T11:30:19.497Z,24.83
2023-03-03T11:32:55.308Z,22.02
2023-03-03T11:35:30.483Z,24.38
2023-03-03T11:38:08.444Z,22.42
2023-03-03T11:40:46.679Z,27.95
2023-03-03T11:43:35.400Z,26.25
2023-03-03T11:46:09.159Z,22.15
2023-03-03T11:48:45.055Z,23.77
2023-03-03T11:51:19.321Z,26.00
2023-03-03T11:53:58.931Z,21.17
2023-03-03T11:56:34.613Z,25.58
2023-03-03T11:59:26.190Z,24.55
2023-03-03T12:01:57.768Z,24.70
2023-03-03T12:04:38.558Z,24.38
2023-03-03T12:07:23.707Z,24.13
2023-03-03T12:10:14.664Z,24.60
2023-03-03T12:12:52.705Z,24.05
2023-03-03T12:15:29.125Z,23.50
2023-03-03T12:18:28.427Z,22.50
2023-03-03T12:21:14.614Z,24.70
2023-03-03T12:24:01.478Z,27.45
2023-03-03T12:26:43.805Z,26.70
2023-03-03T12:29:32.386Z,25.30
2023-03-03T12:40:08.626Z,25.52
2023-03-03T12:42:47.209Z,24.92
2023-03-03T12:45:28.322Z,25.05
2023-03-03T12:48:02.499Z,24.83
2023-03-03T12:50:41.363Z,25.10
2023-03-03T12:53:22.129Z,25.35
2023-03-03T12:55:58.052Z,24.52
2023-03-03T12:58:45.006Z,24.45
2023-03-03T13:01:28.476Z,25.25
2023-03-03T13:04:06.067Z,23.45
2023-03-03T13:06:41.609Z,23.63
2023-03-03T13:09:20.796Z,24.23
2023-03-03T13:12:05.495Z,24.17
2023-03-03T13:14:41.018Z,22.92
2023-03-03T13:17:20.984Z,22.95
2023-03-03T13:19:55.901Z,23.75
2023-03-03T13:22:36.709Z,20.48
2023-03-03T13:25:09.862Z,23.88
2023-03-03T13:27:43.721Z,23.33
2023-03-03T13:30:18.539Z,23.10
2023-03-03T13:33:00.931Z,25.13
2023-03-03T13:35:40.158Z,23.20
2023-03-03T13:38:14.101Z,25.40
2023-03-03T13:40:46.434Z,27.20
2023-03-03T13:43:24.027Z,26.30
2023-03-03T13:46:00.151Z,25.60
2023-03-03T13:49:04.394Z,25.85
2023-03-03T13:51:43.024Z,28.27
2023-03-03T13:54:28.514Z,25.35
2023-03-03T13:57:35.373Z,24.50
2023-03-03T14:00:14.513Z,24.60
2023-03-03T14:03:00.901Z,24.77
2023-03-03T14:05:37.224Z,24.05
2023-03-03T14:08:14.299Z,25.50
2023-03-03T14:10:50.199Z,24.70
2023-03-03T14:13:25.093Z,24.52
2023-03-03T14:16:04.082Z,22.58
2023-03-03T14:18:37.112Z,24.83
2023-03-03T14:21:10.609Z,26.23
2023-03-03T14:23:51.696Z,23.77
2023-03-03T14:26:19.681Z,23.17
2023-03-03T14:28:49.665Z,22.27
2023-03-03T14:31:23.391Z,26.67
2023-03-03T14:34:02.736Z,27.60
2023-03-03T14:36:33.495Z,26.50
2023-03-03T14:39:02.540Z,26.42
2023-03-03T14:41:41.293Z,28.63
2023-03-03T14:44:27.548Z,29.70
2023-03-03T14:47:27.591Z,27.75
2023-03-03T14:50:00.238Z,29.13
2023-03-03T14:52:33.128Z,28.60
2023-03-03T14:55:05.461Z,29.42
2023-03-03T14:57:46.719Z,32.95
2023-03-03T15:00:36.124Z,30.70
2023-03-03T15:03:21.527Z,27.15
2023-03-03T15:05:53.810Z,27.90
2023-03-03T15:08:37.463Z,28.35
2023-03-03T15:11:29.474Z,28.38
2023-03-03T15:17:11.074Z,26.27
2023-03-03T15:20:09.405Z,27.08
2023-03-03T15:22:50.559Z,27.20
2023-03-03T15:25:43.429Z,25.58
2023-03-03T15:28:35.305Z,26.75
2023-03-03T15:34:29.518Z,29.27
2023-03-03T15:37:07.159Z,25.10
2023-03-03T15:39:44.919Z,27.65
2023-03-03T15:42:16.799Z,23.58
2023-03-03T15:44:57.803Z,26.40
2023-03-03T15:47:46.342Z,24.42
2023-03-03T15:50:29.497Z,26.30
2023-03-03T15:53:09.269Z,24.73
2023-03-03T15:55:59.347Z,26.80
2023-03-03T15:59:10.650Z,24.95
2023-03-03T16:01:45.428Z,25.60
2023-03-03T16:04:17.132Z,22.92
2023-03-03T16:06:54.144Z,23.15
2023-03-03T16:09:40.414Z,26.80
2023-03-03T16:12:18.611Z,25.15
2023-03-03T16:15:04.031Z,26.42
2023-03-03T16:17:41.423Z,22.95
2023-03-03T16:20:20.976Z,25.02
2023-03-03T16:23:23.603Z,26.50
2023-03-03T16:26:05.712Z,26.15
2023-03-03T16:28:45.929Z,26.45
2023-03-03T16:31:20.841Z,26.20
2023-03-03T16:33:58.802Z,30.45
2023-03-03T16:36:36.709Z,25.35
2023-03-03T16:39:09.752Z,24.35
2023-03-03T16:41:47.915Z,26.38
2023-03-03T16:44:33.996Z,25.52
2023-03-03T16:47:17.274Z,22.40
2023-03-03T16:49:52.059Z,26.45
2023-03-03T16:52:25.587Z,24.80
2023-03-03T16:54:57.878Z,27.45
2023-03-03T16:57:35.411Z,27.20
2023-03-03T17:00:13.349Z,24.67
2023-03-03T17:03:01.146Z,24.90
2023-03-03T17:05:42.879Z,24.83
2023-03-03T17:08:30.126Z,25.10
2023-03-03T17:11:07.324Z,24.15
2023-03-03T17:13:58.916Z,27.75
2023-03-03T17:16:51.161Z,21.55
2023-03-03T17:19:44.281Z,26.38
2023-03-03T17:22:19.517Z,25.98
2023-03-03T17:25:00.668Z,22.70
2023-03-03T17:27:40.553Z,24.17
2023-03-03T17:30:17.966Z,26.23
2023-03-03T17:33:04.980Z,28.63
2023-03-03T17:35:50.209Z,26.90
2023-03-03T17:38:29.681Z,26.48
2023-03-03T17:41:05.063Z,25.38
2023-03-03T17:43:40.231Z,24.90
2023-03-03T17:46:19.173Z,23.38
2023-03-03T17:49:13.755Z,22.95
2023-03-03T17:52:09.851Z,25.50
2023-03-03T17:55:06.332Z,23.75
2023-03-03T17:57:48.542Z,23.77
2023-03-03T18:00:40.787Z,19.73
2023-03-03T18:03:31.969Z,23.10
2023-03-03T18:06:32.959Z,21.45
2023-03-03T18:09:22.516Z,24.60
2023-03-03T18:12:04.419Z,23.38
2023-03-03T18:14:53.990Z,23.25
2023-03-03T18:17:36.547Z,23.80
2023-03-03T18:20:55.688Z,23.58
2023-03-03T18:23:43.755Z,24.30
2023-03-03T18:26:36.920Z,24.63
2023-03-03T18:29:12.780Z,23.25
2023-03-03T18:32:02.830Z,24.58
2023-03-03T18:34:41.375Z,21.33
2023-03-03T18:37:12.113Z,21.85
2023-03-03T18:39:49.035Z,22.08
2023-03-03T18:42:38.222Z,21.38
2023-03-03T18:45:43.664Z,21.77
2023-03-03T18:48:12.429Z,25.05
2023-03-03T18:50:42.469Z,22.65
2023-03-03T18:53:17.824Z,21.75
2023-03-03T18:55:48.801Z,22.45
2023-03-03T18:58:36.657Z,22.42
2023-03-03T19:01:37.257Z,22.55
2023-03-03T19:04:19.093Z,26.80
2023-03-03T19:07:14.198Z,22.02
2023-03-03T19:09:56.756Z,24.38
2023-03-03T19:15:04.818Z,22.67
2023-03-03T19:17:49.232Z,23.05
2023-03-03T19:20:18.590Z,21.88
2023-03-03T19:22:49.514Z,21.98
2023-03-03T19:25:33.070Z,23.40
2023-03-03T19:28:24.811Z,20.30
2023-03-03T19:30:59.015Z,22.25
2023-03-03T19:33:54.543Z,22.38
2023-03-03T19:36:43.553Z,25.75
2023-03-03T19:39:46.370Z,18.08
2023-03-03T19:42:26.435Z,23.63
2023-03-03T19:45:24.302Z,21.85
2023-03-03T19:48:04.778Z,20.42
2023-03-03T19:50:43.158Z,21.27
2023-03-03T19:53:29.100Z,21.30
2023-03-03T19:56:21.856Z,21.15
2023-03-03T19:59:02.012Z,21.08
2023-03-03T20:01:42.024Z,25.33
2023-03-03T20:04:27.346Z,24.33
2023-03-03T20:06:58.304Z,23.38
2023-03-03T20:09:37.252Z,22.73
2023-03-03T20:12:41.004Z,22.80
2023-03-03T20:15:15.167Z,22.85
2023-03-03T20:17:55.843Z,24.55
2023-03-03T20:20:51.995Z,21.80
2023-03-03T20:23:28.983Z,24.98
2023-03-03T20:26:03.161Z,23.30
2023-03-03T20:29:10.834Z,23.45
2023-03-03T20:31:48.808Z,25.30
2023-03-03T20:34:26.091Z,23.52
2023-03-03T20:37:06.010Z,24.10
2023-03-03T20:39:52.859Z,26.98
2023-03-03T20:42:35.346Z,25.92
2023-03-03T20:45:16.941Z,26.92
2023-03-03T20:47:59.209Z,25.33
2023-03-03T20:50:37.190Z,26.88
2023-03-03T20:53:19.048Z,23.88
2023-03-03T20:55:57.928Z,26.23
2023-03-03T20:58:34.432Z,24.58
2023-03-03T21:01:07.865Z,22.38
2023-03-03T21:03:37.405Z,28.67
2023-03-03T21:06:09.010Z,26.60
2023-03-03T21:08:58.285Z,25.35
2023-03-03T21:11:42.593Z,22.98
2023-03-03T21:14:18.410Z,28.52
2023-03-03T21:16:46.612Z,26.25
2023-03-03T21:19:25.670Z,26.95
2023-03-03T21:21:54.817Z,24.23
2023-03-03T21:24:24.984Z,26.67
2023-03-03T21:26:55.330Z,24.13
2023-03-03T21:29:28.641Z,27.00
2023-03-03T21:31:58.387Z,26.90
2023-03-03T21:34:31.780Z,26.70
2023-03-03T21:37:00.798Z,27.55
2023-03-03T21:39:43.617Z,20.92
2023-03-03T21:42:14.342Z,24.05
2023-03-03T21:44:45.158Z,24.38
2023-03-03T21:47:16.033Z,25.20
2023-03-03T21:49:45.593Z,25.80
2023-03-03T21:52:16.289Z,23.13
2023-03-03T21:54:46.815Z,26.83
2023-03-03T21:57:14.945Z,25.70
2023-03-03T21:59:43.370Z,25.02
2023-03-03T22:02:11.555Z,24.13
2023-03-03T22:04:39.856Z,24.98
2023-03-03T22:07:08.194Z,23.40
2023-03-03T22:09:36.716Z,24.00
2023-03-03T22:12:07.344Z,25.48
2023-03-03T22:14:35.660Z,24.48
2023-03-03T22:17:04.400Z,23.20
2023-03-03T22:19:34.167Z,25.45
2023-03-03T22:22:02.614Z,23.55
2023-03-03T22:24:30.671Z,25.58
2023-03-03T22:26:58.660Z,24.33
2023-03-03T22:29:28.211Z,27.15
2023-03-03T22:31:56.054Z,25.52
2023-03-03T22:34:23.944Z,22.98
2023-03-03T22:36:52.098Z,25.88
2023-03-03T22:39:20.425Z,22.63
2023-03-03T22:41:48.477Z,21.40
2023-03-03T22:44:16.540Z,23.42
2023-03-03T22:46:46.119Z,21.60
2023-03-03T22:49:14.158Z,19.90
2023-03-03T22:51:42.504Z,20.92
2023-03-03T22:54:10.662Z,23.65
2023-03-03T22:56:38.756Z,24.05
2023-03-03T22:59:06.852Z,20.73
2023-03-03T23:01:34.955Z,22.50
2023-03-03T23:04:04.624Z,20.13
2023-03-03T23:06:32.455Z,24.00
2023-03-03T23:09:00.305Z,23.55
2023-03-03T23:11:31.190Z,25.48
2023-03-03T23:13:59.266Z,20.77
2023-03-03T23:16:29.395Z,22.42
2023-03-03T23:18:57.377Z,22.77
2023-03-03T23:21:26.818Z,18.90
2023-03-03T23:23:54.965Z,21.33
2023-03-03T23:26:23.098Z,21.00
2023-03-03T23:28:51.243Z,19.60
2023-03-03T23:31:19.278Z,22.67
2023-03-03T23:33:47.430Z,20.52
2023-03-03T23:36:15.669Z,19.13
2023-03-03T23:38:45.266Z,20.38
2023-03-03T23:41:13.178Z,19.42
2023-03-03T23:43:41.144Z,20.92
2023-03-03T23:46:09.233Z,18.08
2023-03-03T23:48:37.530Z,18.38
2023-03-03T23:51:06.216Z,21.05
2023-03-03T23:53:34.460Z,19.70
2023-03-03T23:56:03.730Z,20.88
2023-03-03T23:58:31.675Z,19.95
